Lewisville, ID (83431)

10:18 PM MDT on August 30, 2014 (GMT -0600)
Garfield Area | Change Station
CLOSE
Current Station
Personal Weather Station
Location: Rigby, ID
Elevation: 4820 ft
Nearby Weather Stations

Elev 4820 ft 43.64 °N, 111.96 °W | Updated 2 minutes ago

Clear
Clear
55.8 °F
Feels Like 55.8 °F
N
6.0
Wind Variable Wind from North
Gusts 10.0 mph

Today
High -- | Low -- °F
--% Chance of Precip.
Yesterday
High -- | Low -- °F
Precip. -- in
6:49 AM 8:06 PM
Waxing Crescent, 27% visible
Pressure 29.77 in
Visibility 10.0 miles
Clouds Mostly Cloudy 11000 ft
Dew Point 46 °F
Humidity 70%
Rainfall 0.00 in
Snow Depth Not available.
UV 0 out of 12
Pollen 8.90 out of 12
PM2.5 Moderate
Flu Activity Not available.
METAR KIDA 310353Z AUTO 21009KT 10SM BKN110 18/06 A2988 RMK AO2 SLP079 T01780056

More Conditions Fewer Conditions

Pressure 29.77 in
Visibility 10.0 miles
Clouds Mostly Cloudy 11000 ft
Dew Point 46 °F
Humidity 70%
Rainfall 0.00 in
Snow Depth Not available.
UV 0 out of 12
Pollen 8.90 out of 12
PM2.5 Moderate
Flu Activity Not available.
METAR KIDA 310353Z AUTO 21009KT 10SM BKN110 18/06 A2988 RMK AO2 SLP079 T01780056

More Conditions Fewer Conditions

10-Day Weather Forecast

Almanac

Astronomy

Aug. 30, 2014 Rise Set
Actual Time 6:49 AM MDT 8:06 PM MDT
Civil Twilight 6:19 AM MDT 8:36 PM MDT
Nautical Twilight 5:43 AM MDT 9:12 PM MDT
Astronomical Twilight 5:06 AM MDT 9:49 PM MDT
Moon 11:51 AM MDT (8/30) 10:32 PM MDT (8/30)
Length of Visible Light 14h 16m
Length of Day
13h 17m
Tomorrow will be 2m 52s shorter.
Waxing Crescent, 27% of the Moon is Illuminated
Aug 31
Waxing Crescent
Sep 2
First Quarter
Sep 8
Full
Sep 15
Last Quarter
Sep 24
New

Today's Extremes

State Highs State Lows

Community

WunderPhotos

Upload Photos

1,748,779 photos uploaded!

Nearby

Air Quality

  Air Quality AQ Index Pollutant
Yesterday Good
PM2.5
Current Moderate
PM2.5
Saturday Good
PM2.5
Sunday Good
PM2.5
Monday Good
PM2.5
Tuesday Good
PM2.5
Wednesday Good
PM2.5

Snow Depth

Station Depth Elevation
Sheep Mountain 0 in 6570 ft
Island Park 0 in 6290 ft
Somsen Ranch 0 in 6800 ft
White Elephant 0 in 7710 ft
Wildhorse Divide 0 in 6490 ft

Earthquake Activity

City Distance Mag. Time & Date
Driggs, Idaho 56 miles 3.8 2:09 PM MDT
2014-08-30
Minimum magnitude displayed is 2.5.

Coastal Water Temperatures

Place Temperature
No Stations Reporting

Nearby Weather Stations